createdAt,value
2022-09-15T00:01:42.439Z,7.70
2022-09-15T00:04:09.404Z,9.57
2022-09-15T00:06:36.740Z,8.67
2022-09-15T00:09:04.686Z,5.73
2022-09-15T00:11:33.458Z,8.63
2022-09-15T00:14:03.215Z,6.80
2022-09-15T00:16:31.120Z,5.57
2022-09-15T00:18:58.446Z,8.03
2022-09-15T00:21:29.694Z,13.23
2022-09-15T00:23:58.318Z,5.40
2022-09-15T00:26:27.141Z,8.77
2022-09-15T00:28:54.335Z,8.47
2022-09-15T00:31:23.040Z,5.23
2022-09-15T00:33:51.210Z,8.07
2022-09-15T00:36:18.517Z,4.97
2022-09-15T00:38:45.679Z,7.37
2022-09-15T00:41:15.513Z,6.10
2022-09-15T00:43:46.082Z,8.60
2022-09-15T00:46:13.219Z,8.47
2022-09-15T00:48:44.919Z,6.80
2022-09-15T00:51:15.227Z,5.47
2022-09-15T00:53:42.779Z,6.33
2022-09-15T00:56:11.723Z,5.60
2022-09-15T00:58:44.767Z,7.30
2022-09-15T01:01:13.837Z,8.47
2022-09-15T01:03:41.827Z,6.17
2022-09-15T01:06:13.538Z,6.63
2022-09-15T01:08:43.615Z,8.40
2022-09-15T01:11:10.815Z,6.17
2022-09-15T01:13:37.933Z,6.77
2022-09-15T01:16:13.727Z,7.53
2022-09-15T01:18:51.544Z,7.90
2022-09-15T01:21:26.335Z,6.17
2022-09-15T01:24:22.584Z,8.97
2022-09-15T01:27:30.428Z,7.97
2022-09-15T01:30:13.853Z,4.97
2022-09-15T01:33:19.345Z,8.57
2022-09-15T01:36:10.185Z,7.90
2022-09-15T01:38:49.990Z,8.97
2022-09-15T01:41:18.947Z,9.47
2022-09-15T01:43:50.852Z,12.37
2022-09-15T01:46:20.275Z,7.77
2022-09-15T01:48:48.910Z,10.60
2022-09-15T01:51:17.294Z,7.60
2022-09-15T01:53:45.350Z,7.60
2022-09-15T01:56:12.678Z,8.97
2022-09-15T01:58:41.021Z,9.40
2022-09-15T02:01:12.260Z,8.20
2022-09-15T02:03:44.684Z,10.13
2022-09-15T02:06:17.267Z,7.67
2022-09-15T02:08:47.170Z,7.80
2022-09-15T02:11:17.255Z,10.77
2022-09-15T02:13:57.320Z,14.07
2022-09-15T02:16:27.696Z,7.97
2022-09-15T02:19:08.129Z,7.47
2022-09-15T02:21:40.747Z,9.23
2022-09-15T02:24:12.571Z,6.20
2022-09-15T02:26:41.706Z,8.37
2022-09-15T02:29:12.398Z,5.93
2022-09-15T02:31:40.368Z,7.07
2022-09-15T02:34:11.067Z,4.47
2022-09-15T02:36:38.172Z,9.57
2022-09-15T02:39:07.867Z,7.20
2022-09-15T02:41:35.043Z,6.00
2022-09-15T02:44:02.888Z,7.63
2022-09-15T02:46:30.054Z,6.93
2022-09-15T02:48:56.908Z,7.20
2022-09-15T02:51:24.211Z,8.97
2022-09-15T02:53:51.208Z,7.57
2022-09-15T02:56:18.184Z,5.27
2022-09-15T02:58:45.048Z,7.07
2022-09-15T03:01:14.907Z,6.90
2022-09-15T03:03:43.116Z,8.53
2022-09-15T03:06:16.033Z,7.83
2022-09-15T03:08:44.616Z,6.33
2022-09-15T03:11:11.620Z,6.63
2022-09-15T03:13:40.956Z,7.33
2022-09-15T03:16:08.480Z,6.27
2022-09-15T03:18:35.967Z,5.73
2022-09-15T03:21:03.395Z,8.67
2022-09-15T03:23:30.240Z,12.53
2022-09-15T03:25:58.476Z,6.10
2022-09-15T03:28:25.802Z,9.27
2022-09-15T03:30:52.662Z,10.47
2022-09-15T03:33:19.577Z,8.13
2022-09-15T03:35:46.514Z,7.17
2022-09-15T03:38:13.391Z,9.40
2022-09-15T03:40:42.219Z,9.47
2022-09-15T03:43:10.240Z,7.93
2022-09-15T03:45:37.812Z,7.23
2022-09-15T03:48:04.882Z,7.53
2022-09-15T03:50:32.082Z,8.37
2022-09-15T03:52:59.906Z,7.03
2022-09-15T03:55:27.099Z,7.10
2022-09-15T03:57:54.019Z,8.13
2022-09-15T04:00:21.839Z,7.17
2022-09-15T04:02:48.686Z,8.23
2022-09-15T04:05:15.601Z,7.23
2022-09-15T04:07:42.444Z,9.67
2022-09-15T04:10:09.666Z,7.57
2022-09-15T04:12:36.582Z,6.47
2022-09-15T04:15:04.489Z,9.33
2022-09-15T04:17:31.782Z,8.30
2022-09-15T04:19:58.639Z,8.37
2022-09-15T04:22:25.475Z,10.77
2022-09-15T04:24:52.460Z,10.07
2022-09-15T04:27:19.313Z,11.57
2022-09-15T04:29:46.378Z,9.17
2022-09-15T04:32:13.267Z,8.90
2022-09-15T04:34:41.514Z,10.37
2022-09-15T04:37:08.559Z,9.90
2022-09-15T04:39:35.404Z,8.17
2022-09-15T04:42:05.122Z,14.80
2022-09-15T04:44:31.976Z,10.30
2022-09-15T04:46:59.268Z,8.23
2022-09-15T04:49:28.208Z,6.93
2022-09-15T04:51:55.650Z,10.50
2022-09-15T04:54:22.851Z,7.53
2022-09-15T04:56:49.749Z,8.83
2022-09-15T04:59:17.837Z,7.23
2022-09-15T05:01:45.034Z,6.87
2022-09-15T05:04:12.130Z,13.23
2022-09-15T05:06:39.149Z,9.47
2022-09-15T05:09:10.278Z,9.57
2022-09-15T05:11:37.676Z,7.37
2022-09-15T05:14:04.833Z,10.37
2022-09-15T05:16:31.739Z,10.00
2022-09-15T05:19:11.103Z,10.80
2022-09-15T05:21:38.102Z,13.03
2022-09-15T05:24:05.265Z,8.00
2022-09-15T05:26:32.461Z,10.80
2022-09-15T05:28:59.803Z,13.10
2022-09-15T05:31:27.887Z,8.80
2022-09-15T05:33:55.102Z,11.03
2022-09-15T05:36:24.402Z,9.90
2022-09-15T05:38:51.673Z,12.77
2022-09-15T05:41:20.064Z,7.33
2022-09-15T05:43:48.520Z,5.20
2022-09-15T05:46:16.298Z,7.53
2022-09-15T05:48:43.263Z,11.40
2022-09-15T05:51:09.943Z,6.80
2022-09-15T05:53:37.128Z,8.50
2022-09-15T05:56:06.103Z,5.07
2022-09-15T05:58:33.246Z,6.30
2022-09-15T06:01:07.981Z,6.93
2022-09-15T06:03:35.739Z,9.73
2022-09-15T06:06:04.682Z,9.83
2022-09-15T06:08:32.338Z,5.90
2022-09-15T06:11:04.807Z,7.07
2022-09-15T06:13:32.233Z,7.73
2022-09-15T06:16:05.653Z,6.87
2022-09-15T06:18:33.296Z,4.50
2022-09-15T06:21:03.767Z,4.63
2022-09-15T06:23:30.691Z,6.30
2022-09-15T06:25:57.692Z,6.87
2022-09-15T06:28:24.564Z,7.83
2022-09-15T06:30:51.457Z,7.87
2022-09-15T06:33:18.631Z,6.90
2022-09-15T06:35:46.119Z,6.47
2022-09-15T06:38:13.324Z,10.40
2022-09-15T06:40:40.180Z,8.60
2022-09-15T06:43:07.233Z,4.40
2022-09-15T06:45:34.139Z,3.57
2022-09-15T06:48:22.874Z,9.73
2022-09-15T06:50:54.658Z,7.20
2022-09-15T06:53:21.513Z,6.40
2022-09-15T06:55:48.414Z,5.43
2022-09-15T06:58:15.863Z,8.23
2022-09-15T07:00:43.317Z,6.20
2022-09-15T07:03:10.759Z,5.83
2022-09-15T07:05:37.939Z,4.83
2022-09-15T07:08:06.198Z,7.07
2022-09-15T07:10:33.031Z,4.23
2022-09-15T07:13:00.594Z,5.93
2022-09-15T07:15:27.512Z,5.97
2022-09-15T07:17:54.391Z,6.40
2022-09-15T07:20:22.266Z,5.47
2022-09-15T07:22:49.162Z,3.33
2022-09-15T07:25:16.557Z,5.13
2022-09-15T07:27:43.453Z,6.37
2022-09-15T07:30:11.272Z,4.90
2022-09-15T07:32:38.220Z,3.63
2022-09-15T07:35:05.815Z,6.63
2022-09-15T07:37:33.202Z,4.17
2022-09-15T07:40:00.391Z,6.27
2022-09-15T07:42:30.111Z,8.33
2022-09-15T07:45:00.203Z,5.33
2022-09-15T07:47:27.066Z,6.13
2022-09-15T07:49:53.969Z,5.93
2022-09-15T07:52:20.870Z,7.33
2022-09-15T07:54:48.003Z,6.70
2022-09-15T07:57:14.840Z,5.43
2022-09-15T07:59:42.084Z,9.40
2022-09-15T08:02:15.898Z,5.57
2022-09-15T08:04:42.970Z,4.07
2022-09-15T08:07:09.790Z,6.87
2022-09-15T08:09:37.144Z,7.77
2022-09-15T08:12:04.562Z,6.80
2022-09-15T08:14:32.114Z,5.97
2022-09-15T08:17:00.451Z,5.37
2022-09-15T08:19:27.469Z,5.53
2022-09-15T08:21:54.349Z,7.17
2022-09-15T08:24:22.105Z,6.80
2022-09-15T08:26:51.059Z,5.90
2022-09-15T08:29:17.991Z,4.90
2022-09-15T08:31:45.952Z,6.20
2022-09-15T08:34:15.118Z,5.07
2022-09-15T08:36:42.310Z,2.20
2022-09-15T08:39:09.445Z,3.80
2022-09-15T08:41:39.432Z,1.67
2022-09-15T08:44:19.672Z,3.60
2022-09-15T08:46:51.837Z,6.00
2022-09-15T08:49:40.811Z,3.17
2022-09-15T08:52:14.958Z,3.60
2022-09-15T08:54:41.914Z,5.73
2022-09-15T08:57:14.226Z,4.23
2022-09-15T08:59:41.133Z,3.50
2022-09-15T09:02:29.859Z,3.53
2022-09-15T09:05:40.847Z,3.63
2022-09-15T09:08:20.441Z,6.53
2022-09-15T09:10:51.841Z,3.33
2022-09-15T09:13:34.710Z,3.27
2022-09-15T09:16:22.122Z,6.37
2022-09-15T09:19:03.053Z,3.63
2022-09-15T09:21:33.193Z,4.10
2022-09-15T09:24:05.246Z,4.13
2022-09-15T09:26:35.655Z,3.57
2022-09-15T09:29:10.645Z,4.03
2022-09-15T09:31:37.598Z,3.87
2022-09-15T09:34:15.353Z,3.03
2022-09-15T09:36:43.035Z,4.40
2022-09-15T09:39:13.264Z,5.10
2022-09-15T09:41:41.367Z,5.57
2022-09-15T09:44:12.495Z,7.00
2022-09-15T09:46:40.024Z,2.73
2022-09-15T09:49:16.265Z,4.33
2022-09-15T09:51:51.455Z,6.07
2022-09-15T09:54:19.870Z,4.13
2022-09-15T09:56:49.924Z,6.20
2022-09-15T09:59:40.366Z,4.43
2022-09-15T10:02:17.956Z,3.17
2022-09-15T10:04:46.038Z,3.60
2022-09-15T10:07:15.259Z,4.60
2022-09-15T10:09:53.055Z,3.83
2022-09-15T10:12:23.062Z,4.90
2022-09-15T10:14:52.627Z,1.70
2022-09-15T10:17:21.871Z,2.67
2022-09-15T10:19:50.762Z,3.23
2022-09-15T10:22:23.900Z,1.30
2022-09-15T10:24:50.957Z,3.40
2022-09-15T10:27:20.465Z,2.43
2022-09-15T10:29:47.401Z,4.80
2022-09-15T10:32:25.726Z,2.70
2022-09-15T10:35:00.108Z,4.37
2022-09-15T10:37:32.002Z,2.30
2022-09-15T10:40:00.763Z,3.23
2022-09-15T10:42:43.355Z,3.00
2022-09-15T10:45:22.244Z,2.03
2022-09-15T10:48:03.388Z,3.27
2022-09-15T10:50:36.011Z,1.60
2022-09-15T10:53:13.294Z,1.97
2022-09-15T10:55:52.680Z,2.53
2022-09-15T10:58:39.838Z,5.43
2022-09-15T11:01:50.372Z,1.90
2022-09-15T11:04:46.498Z,3.10
2022-09-15T11:07:25.075Z,1.97
2022-09-15T11:10:00.755Z,4.77
2022-09-15T11:12:40.016Z,2.73
2022-09-15T11:15:21.598Z,2.90
2022-09-15T11:18:08.129Z,2.77
2022-09-15T11:20:59.398Z,1.63
2022-09-15T11:23:32.105Z,2.97
2022-09-15T11:26:04.867Z,5.17
2022-09-15T11:28:45.527Z,2.83
2022-09-15T11:31:16.376Z,5.37
2022-09-15T11:33:49.714Z,2.50
2022-09-15T11:36:20.536Z,4.10
2022-09-15T11:38:53.227Z,1.73
2022-09-15T11:41:28.084Z,2.83
2022-09-15T11:44:05.404Z,2.70
2022-09-15T11:46:44.954Z,3.37
2022-09-15T11:49:16.148Z,2.87
2022-09-15T11:52:01.858Z,1.50
2022-09-15T11:54:37.059Z,5.50
2022-09-15T11:57:05.027Z,6.57
2022-09-15T11:59:40.207Z,4.37
2022-09-15T12:02:18.661Z,2.80
2022-09-15T12:05:01.746Z,2.13
2022-09-15T12:07:33.252Z,3.17
2022-09-15T12:10:06.613Z,2.73
2022-09-15T12:12:35.698Z,2.87
2022-09-15T12:15:02.809Z,4.40
2022-09-15T12:17:34.501Z,3.10
2022-09-15T12:20:05.688Z,1.73
2022-09-15T12:22:36.682Z,7.50
2022-09-15T12:25:12.525Z,4.50
2022-09-15T12:27:40.265Z,2.57
2022-09-15T12:30:38.999Z,3.07
2022-09-15T12:33:44.780Z,4.40
2022-09-15T12:36:34.086Z,2.73
2022-09-15T12:39:02.322Z,3.07
2022-09-15T12:41:29.811Z,4.20
2022-09-15T12:44:02.049Z,3.67
2022-09-15T12:46:29.121Z,2.73
2022-09-15T12:49:01.567Z,3.63
2022-09-15T12:51:28.762Z,4.70
2022-09-15T12:53:58.501Z,6.73
2022-09-15T12:56:27.706Z,8.60
2022-09-15T12:58:55.922Z,2.83
2022-09-15T13:01:47.409Z,6.00
2022-09-15T13:04:39.790Z,3.43
2022-09-15T13:07:35.564Z,3.67
2022-09-15T13:10:27.310Z,5.13
2022-09-15T13:13:07.393Z,3.73
2022-09-15T13:15:40.570Z,4.17
2022-09-15T13:18:08.139Z,3.83
2022-09-15T13:20:38.111Z,2.50
2022-09-15T13:23:08.955Z,4.40
2022-09-15T13:25:39.729Z,2.03
2022-09-15T13:28:10.501Z,2.60
2022-09-15T13:30:44.943Z,2.17
2022-09-15T13:38:04.339Z,4.97
2022-09-15T13:39:31.033Z,4.63
2022-09-15T13:42:17.507Z,2.47
2022-09-15T13:45:17.783Z,2.07
2022-09-15T13:48:07.842Z,3.33
2022-09-15T13:50:39.441Z,1.87
2022-09-15T13:53:33.097Z,2.50
2022-09-15T13:56:05.757Z,2.30
2022-09-15T14:01:22.130Z,2.83
2022-09-15T14:03:52.115Z,2.27
2022-09-15T14:06:21.704Z,2.30
2022-09-15T14:08:51.358Z,1.73
2022-09-15T14:11:24.831Z,1.83
2022-09-15T14:13:52.351Z,2.43
2022-09-15T14:16:23.347Z,3.13
2022-09-15T14:18:52.291Z,3.63
2022-09-15T14:21:21.536Z,4.57
2022-09-15T14:23:50.100Z,3.47
2022-09-15T14:26:20.086Z,4.10
2022-09-15T14:28:52.076Z,3.67
2022-09-15T14:31:31.658Z,3.63
2022-09-15T14:34:00.233Z,2.80
2022-09-15T14:36:29.215Z,1.90
2022-09-15T14:39:15.651Z,2.30
2022-09-15T14:41:42.728Z,2.30
2022-09-15T14:47:11.851Z,3.53
2022-09-15T14:49:40.631Z,3.00
2022-09-15T14:52:21.969Z,3.03
2022-09-15T14:54:51.080Z,3.00
2022-09-15T14:57:21.396Z,3.20
2022-09-15T14:59:52.162Z,5.13
2022-09-15T15:02:28.151Z,6.87
2022-09-15T15:05:01.959Z,2.87
2022-09-15T15:07:31.760Z,4.57
2022-09-15T15:10:00.439Z,4.37
2022-09-15T15:12:31.424Z,3.00
2022-09-15T15:14:59.780Z,2.83
2022-09-15T15:17:33.457Z,3.47
2022-09-15T15:20:12.668Z,3.50
2022-09-15T15:22:41.024Z,6.20
2022-09-15T15:25:23.035Z,2.63
2022-09-15T15:27:52.012Z,2.70
2022-09-15T15:30:31.931Z,1.43
2022-09-15T15:33:00.567Z,1.97
2022-09-15T15:35:29.309Z,2.30
2022-09-15T15:38:04.863Z,1.67
2022-09-15T15:40:32.433Z,1.90
2022-09-15T15:43:03.073Z,1.30
2022-09-15T15:45:31.109Z,2.53
2022-09-15T15:47:58.041Z,1.33
2022-09-15T15:50:27.623Z,1.40
2022-09-15T15:52:54.809Z,3.47
2022-09-15T15:55:23.460Z,3.03
2022-09-15T15:57:52.039Z,1.47
2022-09-15T16:00:22.172Z,3.30
2022-09-15T16:02:49.606Z,2.83
2022-09-15T16:05:16.549Z,1.00
2022-09-15T16:07:45.279Z,3.70
2022-09-15T16:10:16.600Z,4.23
2022-09-15T16:12:43.538Z,1.87
2022-09-15T16:15:16.210Z,1.47
2022-09-15T16:17:46.631Z,3.30
2022-09-15T16:20:15.154Z,2.07
2022-09-15T16:22:42.105Z,2.03
2022-09-15T16:25:16.621Z,3.73
2022-09-15T16:27:43.728Z,4.43
2022-09-15T16:30:11.661Z,3.83
2022-09-15T16:32:39.095Z,1.70
2022-09-15T16:35:18.921Z,3.27
2022-09-15T16:37:45.768Z,4.07
2022-09-15T16:40:13.141Z,3.40
2022-09-15T16:42:40.119Z,2.40
2022-09-15T16:45:20.102Z,2.53
2022-09-15T16:47:47.053Z,1.97
2022-09-15T16:50:14.451Z,3.23
2022-09-15T16:52:42.686Z,3.87
2022-09-15T16:55:28.863Z,3.57
2022-09-15T16:57:55.770Z,4.00
2022-09-15T17:00:22.945Z,2.17
2022-09-15T17:02:50.233Z,3.87
2022-09-15T17:05:26.773Z,1.13
2022-09-15T17:07:53.591Z,3.10
2022-09-15T17:10:20.802Z,1.73
2022-09-15T17:12:48.738Z,1.80
2022-09-15T17:15:22.266Z,1.20
2022-09-15T17:17:49.243Z,1.43
2022-09-15T17:20:17.128Z,2.13
2022-09-15T17:22:44.025Z,1.63
2022-09-15T17:25:34.210Z,2.60
2022-09-15T17:28:01.959Z,1.87
2022-09-15T17:30:30.855Z,1.73
2022-09-15T17:33:01.664Z,3.20
2022-09-15T17:35:28.592Z,3.03
2022-09-15T17:37:56.006Z,1.47
2022-09-15T17:40:25.772Z,1.70
2022-09-15T17:42:53.838Z,1.63
2022-09-15T17:45:23.474Z,2.50
2022-09-15T17:47:50.962Z,3.47
2022-09-15T17:50:19.027Z,1.97
2022-09-15T17:52:47.741Z,1.80
2022-09-15T17:55:18.199Z,2.80
2022-09-15T17:57:45.236Z,3.30
2022-09-15T18:00:13.367Z,2.03
2022-09-15T18:02:43.142Z,1.87
2022-09-15T18:05:18.253Z,1.43
2022-09-15T18:07:46.187Z,2.03
2022-09-15T18:10:13.199Z,3.40
2022-09-15T18:12:41.864Z,3.33
2022-09-15T18:15:15.750Z,2.17
2022-09-15T18:17:43.311Z,1.57
2022-09-15T18:20:22.437Z,1.90
2022-09-15T18:22:49.985Z,3.67
2022-09-15T18:25:19.690Z,2.97
2022-09-15T18:27:48.535Z,5.30
2022-09-15T18:30:16.276Z,1.17
2022-09-15T18:32:43.777Z,1.87
2022-09-15T18:35:17.679Z,1.20
2022-09-15T18:37:53.777Z,1.90
2022-09-15T18:40:21.032Z,2.67
2022-09-15T18:42:48.473Z,3.03
2022-09-15T18:45:24.631Z,2.10
2022-09-15T18:47:57.142Z,2.57
2022-09-15T18:50:25.393Z,1.63
2022-09-15T18:52:52.994Z,2.53
2022-09-15T18:55:22.195Z,2.87
2022-09-15T18:57:53.752Z,1.20
2022-09-15T19:00:24.064Z,1.80
2022-09-15T19:02:57.341Z,1.73
2022-09-15T19:05:26.099Z,2.50
2022-09-15T19:07:53.207Z,2.20
2022-09-15T19:10:19.816Z,1.93
2022-09-15T19:12:47.250Z,1.83
2022-09-15T19:15:15.533Z,12.37
2022-09-15T19:17:43.249Z,1.20
2022-09-15T19:20:15.013Z,2.40
2022-09-15T19:22:43.994Z,3.27
2022-09-15T19:25:11.695Z,1.83
2022-09-15T19:27:39.433Z,2.00
2022-09-15T19:30:09.272Z,6.10
2022-09-15T19:32:39.023Z,2.67
2022-09-15T19:35:06.774Z,2.23
2022-09-15T19:37:39.322Z,2.57
2022-09-15T19:40:09.341Z,4.37
2022-09-15T19:42:36.384Z,2.53
2022-09-15T19:45:03.428Z,6.47
2022-09-15T19:47:30.512Z,4.97
2022-09-15T19:49:57.460Z,2.97
2022-09-15T19:52:27.208Z,2.27
2022-09-15T19:54:57.027Z,2.63
2022-09-15T19:57:25.538Z,5.47
2022-09-15T19:59:52.396Z,1.90
2022-09-15T20:02:21.857Z,2.93
2022-09-15T20:04:50.307Z,3.03
2022-09-15T20:07:17.160Z,4.00
2022-09-15T20:09:46.734Z,3.00
2022-09-15T20:12:14.394Z,2.63
2022-09-15T20:14:41.856Z,3.47
2022-09-15T20:17:08.785Z,3.60
2022-09-15T20:19:36.480Z,2.30
2022-09-15T20:22:04.225Z,2.93
2022-09-15T20:24:31.383Z,4.93
2022-09-15T20:26:58.738Z,2.87
2022-09-15T20:29:26.768Z,3.97
2022-09-15T20:31:53.880Z,2.30
2022-09-15T20:34:22.667Z,5.43
2022-09-15T20:36:49.602Z,6.83
2022-09-15T20:39:18.861Z,2.17
2022-09-15T20:41:45.810Z,2.90
2022-09-15T20:44:15.022Z,2.27
2022-09-15T20:46:43.105Z,2.67
2022-09-15T20:49:12.141Z,2.27
2022-09-15T20:51:39.075Z,2.37
2022-09-15T20:54:06.102Z,4.57
2022-09-15T20:56:34.462Z,5.00
2022-09-15T20:59:01.351Z,3.17
2022-09-15T21:01:31.533Z,1.90
2022-09-15T21:04:01.947Z,3.50
2022-09-15T21:06:28.688Z,2.17
2022-09-15T21:08:57.054Z,2.40
2022-09-15T21:11:25.618Z,1.83
2022-09-15T21:13:53.965Z,2.47
2022-09-15T21:16:22.842Z,2.37
2022-09-15T21:18:50.182Z,2.27
2022-09-15T21:21:19.444Z,3.17
2022-09-15T21:23:47.778Z,3.00
2022-09-15T21:26:16.369Z,6.40
2022-09-15T21:28:43.458Z,3.03
2022-09-15T21:31:11.913Z,3.43
2022-09-15T21:33:39.502Z,2.77
2022-09-15T21:36:09.172Z,4.60
2022-09-15T21:38:38.266Z,2.60
2022-09-15T21:41:06.060Z,6.43
2022-09-15T21:43:34.459Z,4.40
2022-09-15T21:46:02.830Z,2.93
2022-09-15T21:48:30.287Z,3.60
2022-09-15T21:50:57.756Z,3.30
2022-09-15T21:53:24.800Z,3.50
2022-09-15T21:55:52.359Z,3.13
2022-09-15T21:58:19.442Z,2.40
2022-09-15T22:00:46.897Z,3.40
2022-09-15T22:03:13.939Z,1.70
2022-09-15T22:05:40.779Z,1.80
2022-09-15T22:08:09.673Z,2.33
2022-09-15T22:10:36.840Z,2.77
2022-09-15T22:13:04.728Z,2.80
2022-09-15T22:15:31.714Z,3.47
2022-09-15T22:17:59.799Z,2.63
2022-09-15T22:20:27.482Z,3.53
2022-09-15T22:22:54.332Z,3.00
2022-09-15T22:25:22.020Z,4.07
2022-09-15T22:27:49.017Z,1.73
2022-09-15T22:30:17.904Z,1.87
2022-09-15T22:32:44.833Z,4.93
2022-09-15T22:35:11.697Z,4.20
2022-09-15T22:37:38.634Z,4.40
2022-09-15T22:40:06.276Z,1.90
2022-09-15T22:42:33.128Z,2.53
2022-09-15T22:45:00.019Z,2.30
2022-09-15T22:47:28.059Z,3.83
2022-09-15T22:49:54.860Z,1.77
2022-09-15T22:52:21.700Z,4.43
2022-09-15T22:54:48.962Z,3.53
2022-09-15T22:57:15.864Z,5.07
2022-09-15T22:59:42.684Z,2.53
2022-09-15T23:02:09.866Z,1.90
2022-09-15T23:04:38.188Z,4.80
2022-09-15T23:07:05.222Z,6.73
2022-09-15T23:09:32.119Z,1.93
2022-09-15T23:11:59.039Z,2.00
2022-09-15T23:14:25.706Z,3.53
2022-09-15T23:16:52.593Z,3.33
2022-09-15T23:19:19.433Z,1.90
2022-09-15T23:21:46.765Z,5.00
2022-09-15T23:24:14.272Z,2.30
2022-09-15T23:26:41.205Z,3.33
2022-09-15T23:29:09.295Z,1.70
2022-09-15T23:31:36.160Z,3.80
2022-09-15T23:34:03.043Z,3.00
2022-09-15T23:36:29.936Z,2.17
2022-09-15T23:38:57.614Z,3.33
2022-09-15T23:41:24.632Z,2.33
2022-09-15T23:43:51.524Z,7.57
2022-09-15T23:46:18.406Z,4.13
2022-09-15T23:48:45.268Z,1.87
2022-09-15T23:51:12.113Z,1.47
2022-09-15T23:53:38.982Z,2.57
2022-09-15T23:56:06.968Z,4.00
2022-09-15T23:58:33.864Z,3.00
